sensor_id;sensor_type;location;lat;lon;timestamp;pressure;altitude;pressure_sealevel;temperature;humidity
12475;BME280;6302;42.624;23.334;2023-04-03T00:00:30;92669.56;;;8.60;100.00
12475;BME280;6302;42.624;23.334;2023-04-03T00:02:57;92667.41;;;8.52;100.00
12475;BME280;6302;42.624;23.334;2023-04-03T00:05:23;92669.25;;;8.55;100.00
12475;BME280;6302;42.624;23.334;2023-04-03T00:07:53;92665.56;;;8.48;100.00
12475;BME280;6302;42.624;23.334;2023-04-03T00:10:19;92658.41;;;8.45;100.00
12475;BME280;6302;42.624;23.334;2023-04-03T00:12:46;92651.28;;;8.42;100.00
12475;BME280;6302;42.624;23.334;2023-04-03T00:15:13;92659.19;;;8.42;100.00
12475;BME280;6302;42.624;23.334;2023-04-03T00:17:41;92653.22;;;8.38;100.00
12475;BME280;6302;42.624;23.334;2023-04-03T00:20:08;92653.97;;;8.39;100.00
12475;BME280;6302;42.624;23.334;2023-04-03T00:22:35;92647.94;;;8.35;100.00
12475;BME280;6302;42.624;23.334;2023-04-03T00:25:04;92653.63;;;8.33;100.00
12475;BME280;6302;42.624;23.334;2023-04-03T00:27:31;92646.50;;;8.30;100.00
12475;BME280;6302;42.624;23.334;2023-04-03T00:29:58;92649.91;;;8.27;100.00
12475;BME280;6302;42.624;23.334;2023-04-03T00:32:24;92654.06;;;8.28;100.00
12475;BME280;6302;42.624;23.334;2023-04-03T00:34:51;92648.03;;;8.24;100.00
12475;BME280;6302;42.624;23.334;2023-04-03T00:37:18;92647.31;;;8.20;100.00
12475;BME280;6302;42.624;23.334;2023-04-03T00:39:45;92653.75;;;8.19;100.00
12475;BME280;6302;42.624;23.334;2023-04-03T00:42:13;92651.13;;;8.16;100.00
12475;BME280;6302;42.624;23.334;2023-04-03T00:47:44;92641.75;;;8.11;100.00
12475;BME280;6302;42.624;23.334;2023-04-03T00:50:11;92646.69;;;8.06;100.00
12475;BME280;6302;42.624;23.334;2023-04-03T00:52:38;92655.38;;;8.06;100.00
12475;BME280;6302;42.624;23.334;2023-04-03T00:55:07;92658.78;;;8.03;100.00
12475;BME280;6302;42.624;23.334;2023-04-03T00:57:37;92652.78;;;7.99;100.00
12475;BME280;6302;42.624;23.334;2023-04-03T01:00:09;92653.91;;;7.98;100.00
12475;BME280;6302;42.624;23.334;2023-04-03T01:02:37;92657.31;;;7.99;100.00
12475;BME280;6302;42.624;23.334;2023-04-03T01:05:06;92659.25;;;7.95;100.00
12475;BME280;6302;42.624;23.334;2023-04-03T01:07:33;92663.78;;;7.91;100.00
12475;BME280;6302;42.624;23.334;2023-04-03T01:10:06;92656.63;;;7.91;100.00
12475;BME280;6302;42.624;23.334;2023-04-03T01:12:37;92670.94;;;7.90;100.00
12475;BME280;6302;42.624;23.334;2023-04-03T01:15:06;92653.66;;;7.85;100.00
12475;BME280;6302;42.624;23.334;2023-04-03T01:17:36;92657.03;;;7.86;100.00
12475;BME280;6302;42.624;23.334;2023-04-03T01:23:17;92656.69;;;7.80;100.00
12475;BME280;6302;42.624;23.334;2023-04-03T01:25:50;92645.50;;;7.66;100.00
12475;BME280;6302;42.624;23.334;2023-04-03T01:28:21;92649.25;;;7.68;100.00
12475;BME280;6302;42.624;23.334;2023-04-03T01:30:51;92649.31;;;7.65;100.00
12475;BME280;6302;42.624;23.334;2023-04-03T01:33:21;92651.19;;;7.64;100.00
12475;BME280;6302;42.624;23.334;2023-04-03T01:35:48;92654.59;;;7.61;100.00
12475;BME280;6302;42.624;23.334;2023-04-03T01:38:15;92648.22;;;7.59;100.00
12475;BME280;6302;42.624;23.334;2023-04-03T01:40:42;92651.66;;;7.52;100.00
12475;BME280;6302;42.624;23.334;2023-04-03T01:43:09;92652.75;;;7.55;100.00
12475;BME280;6302;42.624;23.334;2023-04-03T01:45:35;92655.75;;;7.57;100.00
12475;BME280;6302;42.624;23.334;2023-04-03T01:48:03;92656.88;;;7.56;100.00
12475;BME280;6302;42.624;23.334;2023-04-03T01:50:32;92651.63;;;7.56;100.00
12475;BME280;6302;42.624;23.334;2023-04-03T01:52:59;92657.28;;;7.58;100.00
12475;BME280;6302;42.624;23.334;2023-04-03T01:55:26;92660.63;;;7.58;100.00
12475;BME280;6302;42.624;23.334;2023-04-03T01:57:53;92658.75;;;7.59;100.00
12475;BME280;6302;42.624;23.334;2023-04-03T02:00:20;92664.38;;;7.61;100.00
12475;BME280;6302;42.624;23.334;2023-04-03T02:02:47;92661.38;;;7.62;100.00
12475;BME280;6302;42.624;23.334;2023-04-03T02:05:14;92660.97;;;7.67;100.00
12475;BME280;6302;42.624;23.334;2023-04-03T02:07:42;92654.56;;;7.65;100.00
12475;BME280;6302;42.624;23.334;2023-04-03T02:10:09;92650.06;;;7.62;100.00
12475;BME280;6302;42.624;23.334;2023-04-03T02:12:36;92664.44;;;7.57;100.00
12475;BME280;6302;42.624;23.334;2023-04-03T02:15:03;92661.78;;;7.57;100.00
12475;BME280;6302;42.624;23.334;2023-04-03T02:17:30;92665.19;;;7.58;100.00
12475;BME280;6302;42.624;23.334;2023-04-03T02:19:57;92659.88;;;7.61;100.00
12475;BME280;6302;42.624;23.334;2023-04-03T02:22:24;92656.88;;;7.59;100.00
12475;BME280;6302;42.624;23.334;2023-04-03T02:24:52;92653.13;;;7.57;100.00
12475;BME280;6302;42.624;23.334;2023-04-03T02:27:19;92654.28;;;7.52;100.00
12475;BME280;6302;42.624;23.334;2023-04-03T02:29:45;92637.78;;;7.45;100.00
12475;BME280;6302;42.624;23.334;2023-04-03T02:32:12;92645.69;;;7.45;100.00
12475;BME280;6302;42.624;23.334;2023-04-03T02:34:39;92643.44;;;7.40;100.00
12475;BME280;6302;42.624;23.334;2023-04-03T02:37:06;92646.88;;;7.33;100.00
12475;BME280;6302;42.624;23.334;2023-04-03T02:39:32;92639.75;;;7.27;100.00
12475;BME280;6302;42.624;23.334;2023-04-03T02:42:01;92641.69;;;7.22;100.00
12475;BME280;6302;42.624;23.334;2023-04-03T02:44:28;92653.00;;;7.16;100.00
12475;BME280;6302;42.624;23.334;2023-04-03T02:46:55;92642.88;;;7.11;100.00
12475;BME280;6302;42.624;23.334;2023-04-03T02:49:21;92632.75;;;7.06;100.00
12475;BME280;6302;42.624;23.334;2023-04-03T02:51:48;92638.03;;;7.02;100.00
12475;BME280;6302;42.624;23.334;2023-04-03T02:54:16;92629.41;;;6.98;100.00
12475;BME280;6302;42.624;23.334;2023-04-03T02:56:43;92630.94;;;6.92;100.00
12475;BME280;6302;42.624;23.334;2023-04-03T02:59:11;92630.56;;;6.87;100.00
12475;BME280;6302;42.624;23.334;2023-04-03T03:01:37;92621.94;;;6.83;100.00
12475;BME280;6302;42.624;23.334;2023-04-03T03:04:04;92620.84;;;6.77;100.00
12475;BME280;6302;42.624;23.334;2023-04-03T03:06:31;92624.97;;;6.74;100.00
12475;BME280;6302;42.624;23.334;2023-04-03T03:08:58;92622.75;;;6.69;100.00
12475;BME280;6302;42.624;23.334;2023-04-03T03:11:25;92610.38;;;6.66;100.00
12475;BME280;6302;42.624;23.334;2023-04-03T03:13:51;92612.59;;;6.64;100.00
12475;BME280;6302;42.624;23.334;2023-04-03T03:16:20;92607.78;;;6.59;100.00
12475;BME280;6302;42.624;23.334;2023-04-03T03:18:46;92611.53;;;6.54;100.00
12475;BME280;6302;42.624;23.334;2023-04-03T03:21:13;92611.91;;;6.57;100.00
12475;BME280;6302;42.624;23.334;2023-04-03T03:23:40;92611.91;;;6.57;100.00
12475;BME280;6302;42.624;23.334;2023-04-03T03:26:09;92614.56;;;6.53;100.00
12475;BME280;6302;42.624;23.334;2023-04-03T03:28:37;92607.78;;;6.52;100.00
12475;BME280;6302;42.624;23.334;2023-04-03T03:31:04;92591.66;;;6.39;100.00
12475;BME280;6302;42.624;23.334;2023-04-03T03:33:33;92607.41;;;6.53;100.00
12475;BME280;6302;42.624;23.334;2023-04-03T03:36:00;92622.81;;;6.55;100.00
12475;BME280;6302;42.624;23.334;2023-04-03T03:38:27;92620.53;;;6.57;100.00
12475;BME280;6302;42.624;23.334;2023-04-03T03:40:53;92620.53;;;6.61;100.00
12475;BME280;6302;42.624;23.334;2023-04-03T03:43:20;92608.50;;;6.60;100.00
12475;BME280;6302;42.624;23.334;2023-04-03T03:45:50;92606.25;;;6.58;100.00
12475;BME280;6302;42.624;23.334;2023-04-03T03:48:17;92611.88;;;6.60;100.00
12475;BME280;6302;42.624;23.334;2023-04-03T03:50:46;92611.88;;;6.60;100.00
12475;BME280;6302;42.624;23.334;2023-04-03T03:53:13;92616.78;;;6.58;100.00
12475;BME280;6302;42.624;23.334;2023-04-03T03:55:40;92621.28;;;6.61;100.00
12475;BME280;6302;42.624;23.334;2023-04-03T03:58:07;92623.56;;;6.59;100.00
12475;BME280;6302;42.624;23.334;2023-04-03T04:00:34;92619.03;;;6.60;100.00
12475;BME280;6302;42.624;23.334;2023-04-03T04:03:01;92613.41;;;6.61;100.00
12475;BME280;6302;42.624;23.334;2023-04-03T04:05:28;92612.25;;;6.62;100.00
12475;BME280;6302;42.624;23.334;2023-04-03T04:07:57;92610.75;;;6.61;100.00
12475;BME280;6302;42.624;23.334;2023-04-03T04:10:24;92619.78;;;6.60;100.00
12475;BME280;6302;42.624;23.334;2023-04-03T04:12:51;92623.16;;;6.61;100.00
12475;BME280;6302;42.624;23.334;2023-04-03T04:15:17;92633.69;;;6.61;100.00
12475;BME280;6302;42.624;23.334;2023-04-03T04:17:47;92630.69;;;6.62;100.00
12475;BME280;6302;42.624;23.334;2023-04-03T04:20:14;92637.44;;;6.63;100.00
12475;BME280;6302;42.624;23.334;2023-04-03T04:22:40;92629.56;;;6.63;100.00
12475;BME280;6302;42.624;23.334;2023-04-03T04:25:09;92635.19;;;6.65;100.00
12475;BME280;6302;42.624;23.334;2023-04-03T04:27:36;92626.13;;;6.70;100.00
12475;BME280;6302;42.624;23.334;2023-04-03T04:30:04;92630.25;;;6.74;100.00
12475;BME280;6302;42.624;23.334;2023-04-03T04:32:31;92632.13;;;6.81;100.00
12475;BME280;6302;42.624;23.334;2023-04-03T04:34:58;92623.09;;;6.78;100.00
12475;BME280;6302;42.624;23.334;2023-04-03T04:37:25;92631.31;;;6.87;100.00
12475;BME280;6302;42.624;23.334;2023-04-03T04:39:51;92645.22;;;6.95;100.00
12475;BME280;6302;42.624;23.334;2023-04-03T04:42:20;92635.38;;;7.02;100.00
12475;BME280;6302;42.624;23.334;2023-04-03T04:44:46;92642.88;;;7.07;100.00
12475;BME280;6302;42.624;23.334;2023-04-03T04:47:13;92652.63;;;7.14;100.00
12475;BME280;6302;42.624;23.334;2023-04-03T04:49:40;92654.09;;;7.18;100.00
12475;BME280;6302;42.624;23.334;2023-04-03T04:52:07;92655.63;;;7.23;100.00
12475;BME280;6302;42.624;23.334;2023-04-03T04:54:34;92651.41;;;7.29;100.00
12475;BME280;6302;42.624;23.334;2023-04-03T04:57:00;92653.69;;;7.31;100.00
12475;BME280;6302;42.624;23.334;2023-04-03T04:59:28;92657.41;;;7.37;100.00
12475;BME280;6302;42.624;23.334;2023-04-03T05:01:56;92664.91;;;7.42;100.00
12475;BME280;6302;42.624;23.334;2023-04-03T05:04:22;92670.50;;;7.47;100.00
12475;BME280;6302;42.624;23.334;2023-04-03T05:06:49;92673.50;;;7.53;100.00
12475;BME280;6302;42.624;23.334;2023-04-03T05:09:16;92674.97;;;7.57;100.00
12475;BME280;6302;42.624;23.334;2023-04-03T05:11:43;92672.66;;;7.63;100.00
12475;BME280;6302;42.624;23.334;2023-04-03T05:14:10;92679.44;;;7.67;100.00
12475;BME280;6302;42.624;23.334;2023-04-03T05:16:38;92683.13;;;7.77;100.00
12475;BME280;6302;42.624;23.334;2023-04-03T05:19:05;92686.47;;;7.84;100.00
12475;BME280;6302;42.624;23.334;2023-04-03T05:21:32;92686.00;;;7.93;100.00
12475;BME280;6302;42.624;23.334;2023-04-03T05:23:58;92679.19;;;7.99;100.00
12475;BME280;6302;42.624;23.334;2023-04-03T05:26:28;92688.91;;;8.06;100.00
12475;BME280;6302;42.624;23.334;2023-04-03T05:28:55;92693.41;;;8.09;100.00
12475;BME280;6302;42.624;23.334;2023-04-03T05:31:21;92696.00;;;8.16;100.00
12475;BME280;6302;42.624;23.334;2023-04-03T05:33:50;92698.56;;;8.23;100.00
12475;BME280;6302;42.624;23.334;2023-04-03T05:36:16;92691.75;;;8.25;100.00
12475;BME280;6302;42.624;23.334;2023-04-03T05:38:43;92673.63;;;8.34;100.00
12475;BME280;6302;42.624;23.334;2023-04-03T05:41:10;92678.09;;;8.37;100.00
12475;BME280;6302;42.624;23.334;2023-04-03T05:43:37;92677.28;;;8.44;100.00
12475;BME280;6302;42.624;23.334;2023-04-03T05:46:07;92678.03;;;8.44;100.00
12475;BME280;6302;42.624;23.334;2023-04-03T05:48:35;92674.97;;;8.49;100.00
12475;BME280;6302;42.624;23.334;2023-04-03T05:51:04;92672.69;;;8.52;100.00
12475;BME280;6302;42.624;23.334;2023-04-03T05:53:33;92675.63;;;8.57;100.00
12475;BME280;6302;42.624;23.334;2023-04-03T05:56:02;92666.09;;;8.67;100.00
12475;BME280;6302;42.624;23.334;2023-04-03T05:58:29;92662.31;;;8.68;100.00
12475;BME280;6302;42.624;23.334;2023-04-03T06:00:56;92665.31;;;8.70;100.00
12475;BME280;6302;42.624;23.334;2023-04-03T06:03:23;92664.50;;;8.76;100.00
12475;BME280;6302;42.624;23.334;2023-04-03T06:05:49;92662.16;;;8.82;100.00
12475;BME280;6302;42.624;23.334;2023-04-03T06:08:17;92661.78;;;8.83;100.00
12475;BME280;6302;42.624;23.334;2023-04-03T06:10:45;92661.44;;;8.81;100.00
12475;BME280;6302;42.624;23.334;2023-04-03T06:13:12;92657.16;;;8.91;100.00
12475;BME280;6302;42.624;23.334;2023-04-03T06:15:39;92647.47;;;8.81;100.00
12475;BME280;6302;42.624;23.334;2023-04-03T06:18:06;92646.69;;;8.84;100.00
12475;BME280;6302;42.624;23.334;2023-04-03T06:20:33;92647.59;;;8.67;100.00
12475;BME280;6302;42.624;23.334;2023-04-03T06:23:00;92649.81;;;8.72;100.00
12475;BME280;6302;42.624;23.334;2023-04-03T06:25:29;92653.72;;;8.60;100.00
12475;BME280;6302;42.624;23.334;2023-04-03T06:27:57;92654.47;;;8.61;100.00
12475;BME280;6302;42.624;23.334;2023-04-03T06:30:23;92659.34;;;8.62;100.00
12475;BME280;6302;42.624;23.334;2023-04-03T06:32:51;92671.38;;;8.67;100.00
12475;BME280;6302;42.624;23.334;2023-04-03T06:35:19;92678.16;;;8.68;100.00
12475;BME280;6302;42.624;23.334;2023-04-03T06:37:46;92685.34;;;8.67;100.00
12475;BME280;6302;42.624;23.334;2023-04-03T06:40:15;92683.09;;;8.66;100.00
12475;BME280;6302;42.624;23.334;2023-04-03T06:42:46;92688.22;;;8.80;100.00
12475;BME280;6302;42.624;23.334;2023-04-03T06:45:13;92675.78;;;8.77;100.00
12475;BME280;6302;42.624;23.334;2023-04-03T06:47:40;92678.75;;;8.82;100.00
12475;BME280;6302;42.624;23.334;2023-04-03T06:50:08;92672.38;;;8.80;100.00
12475;BME280;6302;42.624;23.334;2023-04-03T06:52:36;92683.09;;;8.99;100.00
12475;BME280;6302;42.624;23.334;2023-04-03T06:55:05;92684.38;;;9.18;100.00
12475;BME280;6302;42.624;23.334;2023-04-03T06:57:32;92686.22;;;9.21;100.00
12475;BME280;6302;42.624;23.334;2023-04-03T07:00:00;92689.47;;;9.32;100.00
12475;BME280;6302;42.624;23.334;2023-04-03T07:02:29;92682.88;;;9.47;100.00
12475;BME280;6302;42.624;23.334;2023-04-03T07:04:56;92661.63;;;9.24;100.00
12475;BME280;6302;42.624;23.334;2023-04-03T07:07:23;92688.94;;;9.44;100.00
12475;BME280;6302;42.624;23.334;2023-04-03T07:09:49;92679.78;;;9.52;100.00
12475;BME280;6302;42.624;23.334;2023-04-03T07:12:17;92672.19;;;9.54;100.00
12475;BME280;6302;42.624;23.334;2023-04-03T07:14:43;92671.63;;;9.66;100.00
12475;BME280;6302;42.624;23.334;2023-04-03T07:17:11;92665.03;;;9.78;100.00
12475;BME280;6302;42.624;23.334;2023-04-03T07:19:38;92667.31;;;9.76;100.00
12475;BME280;6302;42.624;23.334;2023-04-03T07:22:05;92675.50;;;9.85;100.00
12475;BME280;6302;42.624;23.334;2023-04-03T07:24:33;92668.94;;;9.43;100.00
12475;BME280;6302;42.624;23.334;2023-04-03T07:27:00;92660.34;;;9.62;100.00
12475;BME280;6302;42.624;23.334;2023-04-03T07:29:27;92668.97;;;9.66;100.00
12475;BME280;6302;42.624;23.334;2023-04-03T07:31:55;92645.25;;;9.86;100.00
12475;BME280;6302;42.624;23.334;2023-04-03T07:34:23;92648.75;;;10.03;100.00
12475;BME280;6302;42.624;23.334;2023-04-03T07:36:51;92652.44;;;10.09;100.00
12475;BME280;6302;42.624;23.334;2023-04-03T07:39:18;92647.56;;;10.30;100.00
12475;BME280;6302;42.624;23.334;2023-04-03T07:41:45;92645.25;;;10.32;100.00
12475;BME280;6302;42.624;23.334;2023-04-03T07:44:12;92641.59;;;10.26;100.00
12475;BME280;6302;42.624;23.334;2023-04-03T07:46:39;92628.41;;;10.23;100.00
12475;BME280;6302;42.624;23.334;2023-04-03T07:49:06;92632.09;;;10.29;100.00
12475;BME280;6302;42.624;23.334;2023-04-03T07:51:34;92646.63;;;10.40;100.00
12475;BME280;6302;42.624;23.334;2023-04-03T07:54:01;92647.25;;;10.48;100.00
12475;BME280;6302;42.624;23.334;2023-04-03T07:56:28;92649.69;;;10.39;100.00
12475;BME280;6302;42.624;23.334;2023-04-03T07:58:54;92646.88;;;10.26;100.00
12475;BME280;6302;42.624;23.334;2023-04-03T08:01:21;92641.19;;;10.05;100.00
12475;BME280;6302;42.624;23.334;2023-04-03T08:03:48;92645.59;;;10.11;100.00
12475;BME280;6302;42.624;23.334;2023-04-03T08:06:16;92638.72;;;10.17;100.00
12475;BME280;6302;42.624;23.334;2023-04-03T08:08:44;92647.94;;;10.52;100.00
12475;BME280;6302;42.624;23.334;2023-04-03T08:11:11;92647.00;;;10.62;100.00
12475;BME280;6302;42.624;23.334;2023-04-03T08:13:39;92636.81;;;10.80;100.00
12475;BME280;6302;42.624;23.334;2023-04-03T08:16:11;92634.50;;;11.02;100.00
12475;BME280;6302;42.624;23.334;2023-04-03T08:18:39;92636.59;;;11.10;100.00
12475;BME280;6302;42.624;23.334;2023-04-03T08:21:07;92639.09;;;11.18;100.00
12475;BME280;6302;42.624;23.334;2023-04-03T08:23:33;92634.94;;;11.17;98.92
12475;BME280;6302;42.624;23.334;2023-04-03T08:26:07;92634.47;;;11.22;99.45
12475;BME280;6302;42.624;23.334;2023-04-03T08:28:34;92635.22;;;11.38;99.40
12475;BME280;6302;42.624;23.334;2023-04-03T08:31:05;92630.84;;;11.32;99.05
12475;BME280;6302;42.624;23.334;2023-04-03T08:33:33;92632.28;;;11.52;98.99
12475;BME280;6302;42.624;23.334;2023-04-03T08:36:01;92630.41;;;11.69;99.01
12475;BME280;6302;42.624;23.334;2023-04-03T08:38:28;92625.09;;;11.85;96.82
12475;BME280;6302;42.624;23.334;2023-04-03T08:41:07;92630.44;;;12.01;96.76
12475;BME280;6302;42.624;23.334;2023-04-03T08:43:43;92619.19;;;12.10;96.29
12475;BME280;6302;42.624;23.334;2023-04-03T08:46:16;92620.31;;;11.96;96.67
12475;BME280;6302;42.624;23.334;2023-04-03T08:48:48;92624.94;;;12.08;95.33
12475;BME280;6302;42.624;23.334;2023-04-03T08:51:19;92611.59;;;12.12;95.58
12475;BME280;6302;42.624;23.334;2023-04-03T08:53:54;92615.47;;;12.23;96.28
12475;BME280;6302;42.624;23.334;2023-04-03T08:56:25;92605.03;;;12.45;93.65
12475;BME280;6302;42.624;23.334;2023-04-03T08:58:55;92609.78;;;12.37;93.82
12475;BME280;6302;42.624;23.334;2023-04-03T09:01:26;92612.41;;;12.54;94.42
12475;BME280;6302;42.624;23.334;2023-04-03T09:03:54;92602.03;;;12.72;93.73
12475;BME280;6302;42.624;23.334;2023-04-03T09:06:22;92606.31;;;12.82;91.20
12475;BME280;6302;42.624;23.334;2023-04-03T09:08:53;92603.16;;;12.87;87.92
12475;BME280;6302;42.624;23.334;2023-04-03T09:11:36;92601.47;;;12.93;87.01
12475;BME280;6302;42.624;23.334;2023-04-03T09:14:13;92599.69;;;13.02;84.19
12475;BME280;6302;42.624;23.334;2023-04-03T09:16:48;92596.84;;;13.10;80.50
12475;BME280;6302;42.624;23.334;2023-04-03T09:19:22;92594.72;;;13.17;78.58
12475;BME280;6302;42.624;23.334;2023-04-03T09:21:56;92594.75;;;13.30;77.36
12475;BME280;6302;42.624;23.334;2023-04-03T09:24:24;92592.06;;;13.17;75.51
12475;BME280;6302;42.624;23.334;2023-04-03T09:26:55;92596.00;;;13.25;74.75
12475;BME280;6302;42.624;23.334;2023-04-03T09:29:25;92589.28;;;13.33;75.50
12475;BME280;6302;42.624;23.334;2023-04-03T09:31:56;92595.69;;;13.48;73.81
12475;BME280;6302;42.624;23.334;2023-04-03T09:34:27;92586.97;;;13.48;74.25
12475;BME280;6302;42.624;23.334;2023-04-03T09:36:55;92585.16;;;13.57;72.73
12475;BME280;6302;42.624;23.334;2023-04-03T09:39:25;92565.16;;;13.40;72.90
12475;BME280;6302;42.624;23.334;2023-04-03T09:42:01;92584.50;;;13.66;72.53
12475;BME280;6302;42.624;23.334;2023-04-03T09:44:30;92573.66;;;13.60;71.11
12475;BME280;6302;42.624;23.334;2023-04-03T09:46:58;92570.66;;;13.71;71.39
12475;BME280;6302;42.624;23.334;2023-04-03T09:49:25;92563.94;;;13.79;71.17
12475;BME280;6302;42.624;23.334;2023-04-03T09:51:52;92567.91;;;13.75;69.04
12475;BME280;6302;42.624;23.334;2023-04-03T09:54:40;92565.25;;;13.62;70.23
12475;BME280;6302;42.624;23.334;2023-04-03T09:57:11;92563.97;;;13.66;70.75
12475;BME280;6302;42.624;23.334;2023-04-03T09:59:45;92564.28;;;13.68;72.26
12475;BME280;6302;42.624;23.334;2023-04-03T10:02:34;92555.88;;;13.57;71.21
12475;BME280;6302;42.624;23.334;2023-04-03T10:05:03;92556.28;;;13.56;71.14
12475;BME280;6302;42.624;23.334;2023-04-03T10:07:33;92559.81;;;13.53;71.37
12475;BME280;6302;42.624;23.334;2023-04-03T10:10:02;92565.25;;;13.49;72.52
12475;BME280;6302;42.624;23.334;2023-04-03T10:12:31;92556.97;;;13.47;72.18
12475;BME280;6302;42.624;23.334;2023-04-03T10:14:58;92554.91;;;13.51;71.93
12475;BME280;6302;42.624;23.334;2023-04-03T10:17:37;92551.81;;;13.53;73.54
12475;BME280;6302;42.624;23.334;2023-04-03T10:20:21;92553.00;;;13.52;73.66
12475;BME280;6302;42.624;23.334;2023-04-03T10:22:59;92555.75;;;13.48;74.59
12475;BME280;6302;42.624;23.334;2023-04-03T10:25:32;92544.19;;;13.55;74.76
12475;BME280;6302;42.624;23.334;2023-04-03T10:28:05;92550.66;;;13.41;73.04
12475;BME280;6302;42.624;23.334;2023-04-03T10:30:42;92539.28;;;13.41;73.61
12475;BME280;6302;42.624;23.334;2023-04-03T10:33:23;92548.66;;;13.33;74.10
12475;BME280;6302;42.624;23.334;2023-04-03T10:36:02;92532.47;;;13.27;74.61
12475;BME280;6302;42.624;23.334;2023-04-03T10:38:43;92517.03;;;13.22;75.38
12475;BME280;6302;42.624;23.334;2023-04-03T10:41:19;92518.19;;;13.21;76.11
12475;BME280;6302;42.624;23.334;2023-04-03T10:43:57;92524.94;;;13.13;76.64
12475;BME280;6302;42.624;23.334;2023-04-03T10:46:33;92525.78;;;13.10;76.92
12475;BME280;6302;42.624;23.334;2023-04-03T10:49:13;92516.59;;;13.11;76.17
12475;BME280;6302;42.624;23.334;2023-04-03T10:51:45;92522.97;;;13.01;77.68
12475;BME280;6302;42.624;23.334;2023-04-03T10:54:17;92525.88;;;13.07;77.34
12475;BME280;6302;42.624;23.334;2023-04-03T10:56:49;92517.84;;;12.94;78.96
12475;BME280;6302;42.624;23.334;2023-04-03T10:59:23;92519.13;;;12.89;80.68
12475;BME280;6302;42.624;23.334;2023-04-03T11:01:54;92524.41;;;12.77;84.16
12475;BME280;6302;42.624;23.334;2023-04-03T11:04:25;92513.25;;;12.69;87.15
12475;BME280;6302;42.624;23.334;2023-04-03T11:06:56;92521.84;;;12.61;87.46
12475;BME280;6302;42.624;23.334;2023-04-03T11:09:27;92524.78;;;12.50;91.68
12475;BME280;6302;42.624;23.334;2023-04-03T11:11:57;92521.38;;;12.50;93.33
12475;BME280;6302;42.624;23.334;2023-04-03T11:14:30;92527.22;;;12.45;95.70
12475;BME280;6302;42.624;23.334;2023-04-03T11:17:15;92521.03;;;12.35;98.58
12475;BME280;6302;42.624;23.334;2023-04-03T11:19:51;92508.91;;;12.21;100.00
12475;BME280;6302;42.624;23.334;2023-04-03T11:22:24;92517.88;;;12.11;100.00
12475;BME280;6302;42.624;23.334;2023-04-03T11:24:58;92518.72;;;12.08;100.00
12475;BME280;6302;42.624;23.334;2023-04-03T11:27:27;92512.19;;;11.97;100.00
12475;BME280;6302;42.624;23.334;2023-04-03T11:29:59;92518.41;;;11.90;100.00
12475;BME280;6302;42.624;23.334;2023-04-03T11:32:37;92510.44;;;11.90;100.00
12475;BME280;6302;42.624;23.334;2023-04-03T11:35:08;92514.59;;;11.91;100.00
12475;BME280;6302;42.624;23.334;2023-04-03T11:37:39;92512.47;;;11.86;100.00
12475;BME280;6302;42.624;23.334;2023-04-03T11:40:19;92509.34;;;11.75;100.00
12475;BME280;6302;42.624;23.334;2023-04-03T11:42:49;92510.50;;;11.74;100.00
12475;BME280;6302;42.624;23.334;2023-04-03T11:45:36;92510.31;;;11.49;100.00
12475;BME280;6302;42.624;23.334;2023-04-03T11:48:05;92505.44;;;11.47;100.00
12475;BME280;6302;42.624;23.334;2023-04-03T11:50:41;92508.16;;;11.44;100.00
12475;BME280;6302;42.624;23.334;2023-04-03T11:53:26;92509.84;;;11.38;100.00
12475;BME280;6302;42.624;23.334;2023-04-03T11:59:15;92510.06;;;11.11;100.00
12475;BME280;6302;42.624;23.334;2023-04-03T12:01:46;92517.25;;;10.94;100.00
12475;BME280;6302;42.624;23.334;2023-04-03T12:04:14;92528.16;;;10.80;100.00
12475;BME280;6302;42.624;23.334;2023-04-03T12:10:14;92521.72;;;10.62;100.00
12475;BME280;6302;42.624;23.334;2023-04-03T12:12:56;92526.78;;;10.56;100.00
12475;BME280;6302;42.624;23.334;2023-04-03T12:15:45;92506.81;;;10.32;100.00
12475;BME280;6302;42.624;23.334;2023-04-03T12:21:20;92506.88;;;10.28;100.00
12475;BME280;6302;42.624;23.334;2023-04-03T12:24:00;92499.13;;;10.37;100.00
12475;BME280;6302;42.624;23.334;2023-04-03T12:26:31;92503.97;;;10.23;100.00
12475;BME280;6302;42.624;23.334;2023-04-03T12:29:02;92495.09;;;10.10;100.00
12475;BME280;6302;42.624;23.334;2023-04-03T12:31:42;92487.56;;;10.08;100.00
12475;BME280;6302;42.624;23.334;2023-04-03T12:34:23;92485.06;;;9.81;100.00
12475;BME280;6302;42.624;23.334;2023-04-03T12:37:01;92485.19;;;9.74;100.00
12475;BME280;6302;42.624;23.334;2023-04-03T12:39:52;92482.66;;;9.67;100.00
12475;BME280;6302;42.624;23.334;2023-04-03T12:42:34;92473.19;;;9.70;100.00
12475;BME280;6302;42.624;23.334;2023-04-03T12:45:16;92473.91;;;9.70;100.00
12475;BME280;6302;42.624;23.334;2023-04-03T12:47:45;92464.25;;;9.60;100.00
12475;BME280;6302;42.624;23.334;2023-04-03T12:50:21;92459.19;;;9.69;100.00
12475;BME280;6302;42.624;23.334;2023-04-03T12:52:56;92452.94;;;9.60;100.00
12475;BME280;6302;42.624;23.334;2023-04-03T12:55:24;92459.03;;;9.57;100.00
12475;BME280;6302;42.624;23.334;2023-04-03T12:57:52;92461.47;;;9.48;100.00
12475;BME280;6302;42.624;23.334;2023-04-03T13:00:33;92457.78;;;9.42;100.00
12475;BME280;6302;42.624;23.334;2023-04-03T13:03:02;92461.88;;;9.46;100.00
12475;BME280;6302;42.624;23.334;2023-04-03T13:05:31;92458.53;;;9.42;100.00
12475;BME280;6302;42.624;23.334;2023-04-03T13:08:02;92463.38;;;9.47;100.00
12475;BME280;6302;42.624;23.334;2023-04-03T13:10:31;92457.97;;;9.31;100.00
12475;BME280;6302;42.624;23.334;2023-04-03T13:13:09;92459.75;;;9.38;100.00
12475;BME280;6302;42.624;23.334;2023-04-03T13:15:41;92456.47;;;9.30;100.00
12475;BME280;6302;42.624;23.334;2023-04-03T13:18:25;92464.16;;;9.21;100.00
12475;BME280;6302;42.624;23.334;2023-04-03T13:20:53;92470.97;;;9.22;100.00
12475;BME280;6302;42.624;23.334;2023-04-03T13:23:25;92452.13;;;9.20;100.00
12475;BME280;6302;42.624;23.334;2023-04-03T13:25:52;92455.09;;;9.22;100.00